Roaring River, North Carolina
Current Conditions -  °F | °C
As of 12:35 PM on Saturday 25 Oct 2014 (Local Time) from KUKF Reporting Station
Clear Clear  
Wind Chill: 64°   Ceiling: Unl
Heat Index: 64°   Visibility: 10mi
Dew Point: 32°   Wind: 3mph
Humidity: 30%   Direction: 150°SSE
Pressure: 30.07"   Gusts: NA
Location:  36.21°N, 81°W
Report Text: KUKF 251635Z AUTO 15003KT 10SM CLR 18/00 A3007 RMK AO2
Loading
Personal Weather Stations






























Interactive Weather Map
Tropical Storm Tracking
New forecast layout! Learn more

10-Day Weather Forecast

Advertisements
Track Severe Weather on mobile